Time,TemperatureF,DewpointF,PressureIn,WindDirection,WindDirectionDegrees,WindSpeedMPH,WindSpeedGustMPH,Humidity,HourlyPrecipIn,Conditions,Clouds,dailyrainin,SolarRadiationWatts/m^2,SoftwareType,DateUTC
2013-08-05 00:12:00,53.0,27.0,-100.00,East,83,7.0,10.0,37,0.00,,,0.00,0.000000,,2013-08-05 06:12:00,
2013-08-05 00:22:00,53.0,27.0,-100.00,East,83,7.0,10.0,37,0.00,,,0.00,0.000000,,2013-08-05 06:22:00,
2013-08-05 00:32:00,53.0,27.0,-100.00,East,83,7.0,10.0,37,0.00,,,0.00,0.000000,,2013-08-05 06:32:00,
2013-08-05 00:42:00,53.0,27.0,-100.00,East,83,7.0,10.0,37,0.00,,,0.00,0.000000,,2013-08-05 06:42:00,
2013-08-05 00:52:00,52.0,27.0,-100.00,East,80,8.0,12.0,37,0.00,,,0.00,0.000000,,2013-08-05 06:52:00,
2013-08-05 01:22:00,52.0,27.0,-100.00,East,80,8.0,12.0,37,0.00,,,0.00,0.000000,,2013-08-05 07:22:00,
2013-08-05 01:32:00,52.0,27.0,-100.00,East,80,8.0,12.0,37,0.00,,,0.00,0.000000,,2013-08-05 07:32:00,
2013-08-05 01:43:00,52.0,27.0,-100.00,East,80,8.0,12.0,37,0.00,,,0.00,0.000000,,2013-08-05 07:43:00,
2013-08-05 02:21:00,50.0,27.0,-100.00,East,80,7.0,13.0,40,0.00,,,0.00,0.000000,,2013-08-05 08:21:00,
2013-08-05 02:34:00,50.0,27.0,-100.00,East,80,7.0,13.0,40,0.00,,,0.00,0.000000,,2013-08-05 08:34:00,
2013-08-05 02:44:00,50.0,27.0,-100.00,East,80,7.0,13.0,40,0.00,,,0.00,0.000000,,2013-08-05 08:44:00,
2013-08-05 02:52:00,48.0,25.0,-100.00,ENE,78,8.0,11.0,41,0.00,,,0.00,0.000000,,2013-08-05 08:52:00,
2013-08-05 03:15:00,48.0,25.0,-100.00,ENE,78,8.0,11.0,41,0.00,,,0.00,0.000000,,2013-08-05 09:15:00,
2013-08-05 03:35:00,48.0,25.0,-100.00,ENE,78,8.0,11.0,41,0.00,,,0.00,0.000000,,2013-08-05 09:35:00,
2013-08-05 03:44:00,48.0,25.0,-100.00,ENE,78,8.0,11.0,41,0.00,,,0.00,0.000000,,2013-08-05 09:44:00,
2013-08-05 03:52:00,47.0,26.0,-100.00,East,81,7.0,12.0,43,0.00,,,0.00,0.000000,,2013-08-05 09:52:00,
2013-08-05 04:23:00,47.0,26.0,-100.00,East,81,7.0,12.0,43,0.00,,,0.00,0.000000,,2013-08-05 10:23:00,
2013-08-05 04:32:00,47.0,26.0,-100.00,East,81,7.0,12.0,43,0.00,,,0.00,0.000000,,2013-08-05 10:32:00,
2013-08-05 04:44:00,47.0,26.0,-100.00,East,81,7.0,12.0,43,0.00,,,0.00,0.000000,,2013-08-05 10:44:00,
2013-08-05 04:52:00,44.0,25.0,-100.00,ENE,75,5.0,11.0,47,0.00,,,0.00,0.000000,,2013-08-05 10:52:00,
2013-08-05 05:24:00,44.0,25.0,-100.00,ENE,75,5.0,11.0,47,0.00,,,0.00,0.000000,,2013-08-05 11:24:00,
2013-08-05 05:45:00,44.0,25.0,-100.00,ENE,75,5.0,11.0,47,0.00,,,0.00,0.000000,,2013-08-05 11:45:00,
2013-08-05 05:52:00,42.0,25.0,-100.00,ENE,78,5.0,9.0,50,0.00,,,0.00,0.000000,,2013-08-05 11:52:00,
2013-08-05 06:33:00,42.0,25.0,-100.00,ENE,78,5.0,9.0,50,0.00,,,0.00,0.000000,,2013-08-05 12:33:00,
2013-08-05 06:44:00,42.0,25.0,-100.00,ENE,78,5.0,9.0,50,0.00,,,0.00,0.000000,,2013-08-05 12:44:00,
2013-08-05 06:52:00,43.0,25.0,-100.00,East,79,5.0,10.0,49,0.00,,,0.00,8.000000,,2013-08-05 12:52:00,
2013-08-05 07:23:00,43.0,25.0,-100.00,East,79,5.0,10.0,49,0.00,,,0.00,8.000000,,2013-08-05 13:23:00,
2013-08-05 07:43:00,43.0,25.0,-100.00,East,79,5.0,10.0,49,0.00,,,0.00,8.000000,,2013-08-05 13:43:00,
2013-08-05 07:52:00,51.0,28.0,-100.00,ENE,76,2.0,6.0,40,0.00,,,0.00,108.000000,,2013-08-05 13:52:00,
2013-08-05 08:34:00,51.0,28.0,-100.00,ENE,76,2.0,6.0,40,0.00,,,0.00,108.000000,,2013-08-05 14:34:00,
2013-08-05 09:43:00,61.0,30.0,-100.00,East,88,1.0,7.0,31,-99.99,,,0.00,333.000000,,2013-08-05 15:43:00,
2013-08-05 09:52:00,65.0,30.0,-100.00,West,262,2.0,5.0,27,0.00,,,0.00,523.000000,,2013-08-05 15:52:00,
2013-08-05 10:33:00,65.0,30.0,-100.00,West,262,2.0,5.0,27,0.00,,,0.00,523.000000,,2013-08-05 16:33:00,
2013-08-05 10:52:00,71.0,31.0,-100.00,WNW,292,2.0,5.0,23,0.00,,,0.00,693.000000,,2013-08-05 16:52:00,
2013-08-05 11:22:00,71.0,31.0,-100.00,WNW,292,2.0,5.0,23,0.00,,,0.00,693.000000,,2013-08-05 17:22:00,
2013-08-05 11:33:00,71.0,31.0,-100.00,WNW,292,2.0,5.0,23,0.00,,,0.00,693.000000,,2013-08-05 17:33:00,
2013-08-05 11:44:00,71.0,31.0,-100.00,WNW,292,2.0,5.0,23,0.00,,,0.00,693.000000,,2013-08-05 17:44:00,
2013-08-05 11:52:00,76.0,34.0,-100.00,WNW,300,4.0,8.0,22,0.00,,,0.00,825.000000,,2013-08-05 17:52:00,
2013-08-05 12:52:00,80.0,30.0,-100.00,NW,304,7.0,12.0,16,0.00,,,0.00,910.000000,,2013-08-05 18:52:00,
2013-08-05 13:24:00,80.0,30.0,-100.00,NW,304,7.0,12.0,16,0.00,,,0.00,910.000000,,2013-08-05 19:24:00,
2013-08-05 13:33:00,80.0,30.0,-100.00,NW,304,7.0,12.0,16,0.00,,,0.00,910.000000,,2013-08-05 19:33:00,
2013-08-05 13:52:00,81.0,29.0,-100.00,SW,231,11.0,18.0,15,0.00,,,0.00,935.000000,,2013-08-05 19:52:00,
2013-08-05 14:24:00,81.0,29.0,-100.00,SW,231,11.0,18.0,15,0.00,,,0.00,935.000000,,2013-08-05 20:24:00,
2013-08-05 14:34:00,81.0,29.0,-100.00,SW,231,11.0,18.0,15,0.00,,,0.00,935.000000,,2013-08-05 20:34:00,
2013-08-05 14:45:00,81.0,29.0,-100.00,SW,231,11.0,18.0,15,0.00,,,0.00,935.000000,,2013-08-05 20:45:00,
2013-08-05 14:52:00,80.0,30.0,-100.00,SW,233,9.0,23.0,16,0.00,,,0.00,670.000000,,2013-08-05 20:52:00,
2013-08-05 15:33:00,80.0,30.0,-100.00,SW,233,9.0,23.0,16,0.00,,,0.00,670.000000,,2013-08-05 21:33:00,
2013-08-05 15:45:00,80.0,30.0,-100.00,SW,233,9.0,23.0,16,0.00,,,0.00,670.000000,,2013-08-05 21:45:00,
2013-08-05 15:52:00,78.0,30.0,-100.00,SW,215,9.0,26.0,17,0.00,,,0.00,619.000000,,2013-08-05 21:52:00,
2013-08-05 16:34:00,78.0,30.0,-100.00,SW,215,9.0,26.0,17,0.00,,,0.00,619.000000,,2013-08-05 22:34:00,
2013-08-05 16:43:00,78.0,30.0,-100.00,SW,215,9.0,26.0,17,0.00,,,0.00,619.000000,,2013-08-05 22:43:00,
2013-08-05 16:52:00,83.0,21.0,-100.00,West,279,8.0,26.0,10,0.00,,,0.00,691.000000,,2013-08-05 22:52:00,
2013-08-05 17:24:00,83.0,21.0,-100.00,West,279,8.0,26.0,10,0.00,,,0.00,691.000000,,2013-08-05 23:24:00,
2013-08-05 17:33:00,83.0,21.0,-100.00,West,279,8.0,26.0,10,0.00,,,0.00,691.000000,,2013-08-05 23:33:00,
2013-08-05 17:44:00,83.0,21.0,-100.00,West,279,8.0,26.0,10,0.00,,,0.00,691.000000,,2013-08-05 23:44:00,
2013-08-05 17:52:00,82.0,20.0,-100.00,WNW,283,9.0,22.0,10,0.00,,,0.00,522.000000,,2013-08-05 23:52:00,
2013-08-05 18:24:00,82.0,20.0,-100.00,WNW,283,9.0,22.0,10,0.00,,,0.00,522.000000,,2013-08-06 00:24:00,
2013-08-05 18:34:00,82.0,20.0,-100.00,WNW,283,9.0,22.0,10,0.00,,,0.00,522.000000,,2013-08-06 00:34:00,
2013-08-05 18:52:00,78.0,23.0,-100.00,West,267,8.0,23.0,13,0.00,,,0.00,254.000000,,2013-08-06 00:52:00,
2013-08-05 19:35:00,78.0,23.0,-100.00,West,267,8.0,23.0,13,0.00,,,0.00,254.000000,,2013-08-06 01:35:00,
2013-08-05 19:45:00,78.0,23.0,-100.00,West,267,8.0,23.0,13,0.00,,,0.00,254.000000,,2013-08-06 01:45:00,
2013-08-05 19:52:00,76.0,27.0,-100.00,WSW,256,5.0,21.0,16,0.00,,,0.00,149.000000,,2013-08-06 01:52:00,
2013-08-05 20:24:00,76.0,27.0,-100.00,WSW,256,5.0,21.0,16,0.00,,,0.00,149.000000,,2013-08-06 02:24:00,
2013-08-05 20:32:00,76.0,27.0,-100.00,WSW,256,5.0,21.0,16,0.00,,,0.00,149.000000,,2013-08-06 02:32:00,
2013-08-05 20:52:00,70.0,25.0,-100.00,West,279,4.0,9.0,18,0.00,,,0.00,32.000000,,2013-08-06 02:52:00,
2013-08-05 21:24:00,70.0,25.0,-100.00,West,279,4.0,9.0,18,0.00,,,0.00,32.000000,,2013-08-06 03:24:00,
2013-08-05 21:34:00,70.0,25.0,-100.00,West,279,4.0,9.0,18,0.00,,,0.00,32.000000,,2013-08-06 03:34:00,
2013-08-05 21:45:00,70.0,25.0,-100.00,West,279,4.0,9.0,18,0.00,,,0.00,32.000000,,2013-08-06 03:45:00,
2013-08-05 21:52:00,66.0,25.0,-100.00,NW,325,3.0,7.0,21,0.00,,,-99.99,0.000000,,2013-08-06 03:52:00,
2013-08-05 22:22:00,66.0,25.0,-100.00,NW,325,3.0,7.0,21,0.00,,,-99.99,0.000000,,2013-08-06 04:22:00,
2013-08-05 22:33:00,66.0,25.0,-100.00,NW,325,3.0,7.0,21,0.00,,,-99.99,0.000000,,2013-08-06 04:33:00,
2013-08-05 22:44:00,66.0,25.0,-100.00,NW,325,3.0,7.0,21,0.00,,,-99.99,0.000000,,2013-08-06 04:44:00,
2013-08-05 22:52:00,64.0,25.0,-100.00,NE,36,1.0,6.0,23,0.00,,,0.00,0.000000,,2013-08-06 04:52:00,
2013-08-05 23:22:00,64.0,25.0,-100.00,NE,36,1.0,6.0,23,0.00,,,0.00,0.000000,,2013-08-06 05:22:00,
2013-08-05 23:32:00,64.0,25.0,-100.00,NE,36,1.0,6.0,23,0.00,,,0.00,0.000000,,2013-08-06 05:32:00,
2013-08-05 23:43:00,64.0,25.0,-100.00,NE,36,1.0,6.0,23,0.00,,,0.00,0.000000,,2013-08-06 05:43:00,
2013-08-05 23:52:00,58.0,29.0,-100.00,East,90,4.0,6.0,33,0.00,,,-99.99,0.000000,,2013-08-06 05:52:00,